createdAt,value
2022-11-16T00:01:46.357Z,96935.69
2022-11-16T00:04:13.328Z,96944.25
2022-11-16T00:06:40.535Z,96930.28
2022-11-16T00:09:22.835Z,96933.53
2022-11-16T00:11:53.274Z,96927.59
2022-11-16T00:14:22.616Z,96926.88
2022-11-16T00:16:50.683Z,96934.38
2022-11-16T00:19:17.802Z,96926.75
2022-11-16T00:21:44.843Z,96925.41
2022-11-16T00:24:17.535Z,96935.00
2022-11-16T00:26:45.322Z,96942.09
2022-11-16T00:29:19.391Z,96941.31
2022-11-16T00:31:47.917Z,96937.75
2022-11-16T00:34:18.527Z,96937.03
2022-11-16T00:36:45.856Z,96939.97
2022-11-16T00:39:15.089Z,96944.56
2022-11-16T00:41:42.963Z,96942.63
2022-11-16T00:44:10.955Z,96947.72
2022-11-16T00:46:38.343Z,96945.59
2022-11-16T00:49:06.374Z,96951.06
2022-11-16T00:51:35.444Z,96953.91
2022-11-16T00:54:03.984Z,96959.19
2022-11-16T00:56:33.671Z,96959.91
2022-11-16T00:59:01.010Z,96959.72
2022-11-16T01:01:27.999Z,96956.31
2022-11-16T01:03:55.180Z,96958.31
2022-11-16T01:06:23.408Z,96960.19
2022-11-16T01:08:50.560Z,96948.63
2022-11-16T01:11:37.670Z,96946.84
2022-11-16T01:14:07.892Z,96947.97
2022-11-16T01:16:36.064Z,96942.78
2022-11-16T01:19:04.060Z,96937.72
2022-11-16T01:21:31.122Z,96944.63
2022-11-16T01:23:58.154Z,96933.94
2022-11-16T01:26:25.939Z,96927.56
2022-11-16T01:28:53.588Z,96924.56
2022-11-16T01:31:20.666Z,96924.97
2022-11-16T01:33:49.855Z,96924.38
2022-11-16T01:36:26.428Z,96918.59
2022-11-16T01:38:55.712Z,96912.22
2022-11-16T01:41:26.877Z,96908.00
2022-11-16T01:44:32.699Z,96903.31
2022-11-16T01:47:11.919Z,96899.41
2022-11-16T01:49:47.325Z,96907.59
2022-11-16T01:52:21.754Z,96895.94
2022-11-16T01:54:51.925Z,96898.91
2022-11-16T01:57:26.370Z,96890.06
2022-11-16T02:00:08.058Z,96895.41
2022-11-16T02:02:46.853Z,96884.00
2022-11-16T02:06:39.093Z,96888.88
2022-11-16T02:09:46.155Z,96877.88
2022-11-16T02:12:43.638Z,96876.72
2022-11-16T02:15:42.582Z,96870.28
2022-11-16T02:18:22.723Z,96874.09
2022-11-16T02:21:08.124Z,96873.09
2022-11-16T02:24:01.196Z,96872.47
2022-11-16T02:26:46.597Z,96873.09
2022-11-16T02:29:30.876Z,96873.38
2022-11-16T02:32:14.631Z,96871.41
2022-11-16T02:35:20.246Z,96861.50
2022-11-16T02:37:55.375Z,96870.34
2022-11-16T02:40:26.751Z,96865.31
2022-11-16T02:43:09.214Z,96856.09
2022-11-16T02:45:44.470Z,96853.06
2022-11-16T02:48:26.339Z,96869.41
2022-11-16T02:50:54.936Z,96877.63
2022-11-16T02:53:24.138Z,96870.31
2022-11-16T02:55:52.714Z,96875.56
2022-11-16T02:58:26.142Z,96873.50
2022-11-16T03:01:12.836Z,96884.19
2022-11-16T03:03:50.161Z,96879.09
2022-11-16T03:06:23.625Z,96883.38
2022-11-16T03:09:01.224Z,96885.75
2022-11-16T03:11:52.300Z,96879.84
2022-11-16T03:14:23.304Z,96886.41
2022-11-16T03:16:58.562Z,96883.94
2022-11-16T03:19:48.071Z,96878.00
2022-11-16T03:22:33.505Z,96875.06
2022-11-16T03:25:01.914Z,96867.28
2022-11-16T03:27:54.069Z,96860.97
2022-11-16T03:30:26.378Z,96867.91
2022-11-16T03:33:07.651Z,96863.47
2022-11-16T03:35:50.855Z,96868.47
2022-11-16T03:38:20.861Z,96872.00
2022-11-16T03:40:48.535Z,96871.28
2022-11-16T03:43:17.652Z,96863.88
2022-11-16T03:45:45.844Z,96868.00
2022-11-16T03:48:16.320Z,96866.06
2022-11-16T03:50:43.821Z,96866.06
2022-11-16T03:53:11.334Z,96862.19
2022-11-16T03:55:39.155Z,96870.66
2022-11-16T03:58:06.185Z,96855.53
2022-11-16T04:00:34.120Z,96848.53
2022-11-16T04:03:07.246Z,96851.94
2022-11-16T04:05:54.564Z,96855.19
2022-11-16T04:08:40.372Z,96851.69
2022-11-16T04:11:35.418Z,96846.00
2022-11-16T04:14:21.171Z,96851.84
2022-11-16T04:17:07.009Z,96855.53
2022-11-16T04:19:57.758Z,96855.22
2022-11-16T04:22:52.010Z,96871.66
2022-11-16T04:25:27.619Z,96879.59
2022-11-16T04:28:13.512Z,96901.44
2022-11-16T04:31:15.990Z,96886.00
2022-11-16T04:34:09.955Z,96893.44
2022-11-16T04:36:59.052Z,96891.19
2022-11-16T04:39:27.876Z,96893.09
2022-11-16T04:42:13.282Z,96892.00
2022-11-16T04:44:59.385Z,96895.63
2022-11-16T04:47:31.438Z,96901.81
2022-11-16T04:49:58.448Z,96908.44
2022-11-16T04:52:25.693Z,96910.69
2022-11-16T04:54:54.853Z,96897.34
2022-11-16T04:57:22.505Z,96890.25
2022-11-16T04:59:50.470Z,96896.44
2022-11-16T05:02:17.742Z,96889.25
2022-11-16T05:04:49.756Z,96889.78
2022-11-16T05:07:17.945Z,96903.25
2022-11-16T05:09:48.602Z,96897.16
2022-11-16T05:12:22.465Z,96896.78
2022-11-16T05:14:55.279Z,96890.50
2022-11-16T05:17:25.490Z,96904.06
2022-11-16T05:20:11.765Z,96905.63
2022-11-16T05:22:54.835Z,96904.38
2022-11-16T05:25:23.426Z,96898.66
2022-11-16T05:27:50.811Z,96886.19
2022-11-16T05:30:17.913Z,96888.06
2022-11-16T05:32:45.106Z,96884.41
2022-11-16T05:35:13.458Z,96890.97
2022-11-16T05:37:40.571Z,96891.50
2022-11-16T05:40:08.321Z,96887.38
2022-11-16T05:42:48.199Z,96890.88
2022-11-16T05:45:20.711Z,96907.56
2022-11-16T05:47:48.558Z,96906.38
2022-11-16T05:50:16.543Z,96903.44
2022-11-16T05:52:46.678Z,96903.81
2022-11-16T05:55:13.694Z,96903.16
2022-11-16T05:57:44.168Z,96906.25
2022-11-16T06:00:12.557Z,96910.41
2022-11-16T06:02:42.778Z,96899.19
2022-11-16T06:05:18.727Z,96904.81
2022-11-16T06:07:46.756Z,96895.28
2022-11-16T06:10:13.972Z,96898.56
2022-11-16T06:12:43.618Z,96898.75
2022-11-16T06:15:10.769Z,96896.97
2022-11-16T06:17:37.764Z,96899.00
2022-11-16T06:20:05.281Z,96893.81
2022-11-16T06:22:32.339Z,96895.81
2022-11-16T06:24:59.384Z,96893.28
2022-11-16T06:27:26.958Z,96897.91
2022-11-16T06:29:53.872Z,96901.16
2022-11-16T06:32:21.981Z,96901.72
2022-11-16T06:34:48.917Z,96909.13
2022-11-16T06:37:16.136Z,96905.16
2022-11-16T06:39:43.076Z,96916.53
2022-11-16T06:42:10.302Z,96916.66
2022-11-16T06:44:38.609Z,96917.47
2022-11-16T06:47:07.493Z,96917.94
2022-11-16T06:49:35.132Z,96921.06
2022-11-16T06:52:06.648Z,96932.91
2022-11-16T06:54:33.614Z,96929.75
2022-11-16T06:57:03.185Z,96928.00
2022-11-16T06:59:30.272Z,96929.59
2022-11-16T07:01:57.293Z,96935.44
2022-11-16T07:04:24.765Z,96938.50
2022-11-16T07:06:56.035Z,96939.06
2022-11-16T07:09:23.026Z,96946.47
2022-11-16T07:11:50.090Z,96948.97
2022-11-16T07:14:18.448Z,96952.00
2022-11-16T07:16:45.402Z,96962.34
2022-11-16T07:19:12.641Z,96962.66
2022-11-16T07:21:40.845Z,96976.59
2022-11-16T07:24:13.286Z,96961.38
2022-11-16T07:26:40.238Z,96972.22
2022-11-16T07:29:12.006Z,96984.94
2022-11-16T07:31:43.443Z,96976.94
2022-11-16T07:34:32.984Z,96982.47
2022-11-16T07:37:17.809Z,96992.41
2022-11-16T07:39:45.677Z,96995.09
2022-11-16T07:42:13.324Z,96992.81
2022-11-16T07:44:50.681Z,97001.97
2022-11-16T07:47:17.999Z,96984.88
2022-11-16T07:49:45.531Z,96998.72
2022-11-16T07:52:18.516Z,96998.44
2022-11-16T07:55:06.399Z,97010.75
2022-11-16T07:57:34.509Z,96999.78
2022-11-16T08:00:06.593Z,97002.53
2022-11-16T08:02:47.498Z,97003.88
2022-11-16T08:05:18.463Z,97002.66
2022-11-16T08:07:46.205Z,97009.09
2022-11-16T08:10:13.441Z,97009.56
2022-11-16T08:12:41.016Z,97006.94
2022-11-16T08:15:08.625Z,97015.59
2022-11-16T08:17:35.607Z,97020.56
2022-11-16T08:20:08.278Z,97014.66
2022-11-16T08:22:35.465Z,97018.34
2022-11-16T08:25:02.948Z,97008.94
2022-11-16T08:27:32.290Z,97010.56
2022-11-16T08:29:59.624Z,97015.78
2022-11-16T08:32:29.667Z,97023.81
2022-11-16T08:34:56.969Z,97027.75
2022-11-16T08:37:23.877Z,97027.50
2022-11-16T08:39:50.940Z,97021.63
2022-11-16T08:42:19.662Z,97027.00
2022-11-16T08:44:48.826Z,97030.38
2022-11-16T08:47:18.678Z,97028.84
2022-11-16T08:49:54.100Z,97022.41
2022-11-16T08:52:22.517Z,97029.81
2022-11-16T08:54:51.448Z,97019.19
2022-11-16T08:57:18.805Z,97022.72
2022-11-16T08:59:49.318Z,97031.78
2022-11-16T09:02:16.266Z,97032.78
2022-11-16T09:04:43.815Z,97032.16
2022-11-16T09:07:10.898Z,97043.28
2022-11-16T09:09:37.927Z,97032.47
2022-11-16T09:12:05.078Z,97043.28
2022-11-16T09:14:32.069Z,97040.88
2022-11-16T09:16:59.094Z,97043.13
2022-11-16T09:19:26.088Z,97040.38
2022-11-16T09:21:53.059Z,97047.25
2022-11-16T09:24:20.102Z,97031.72
2022-11-16T09:26:47.033Z,97046.41
2022-11-16T09:29:15.628Z,97046.94
2022-11-16T09:31:43.758Z,97054.66
2022-11-16T09:34:10.737Z,97052.44
2022-11-16T09:36:37.733Z,97042.72
2022-11-16T09:39:32.740Z,97046.94
2022-11-16T09:42:36.954Z,97041.41
2022-11-16T09:45:08.943Z,97052.22
2022-11-16T09:47:41.613Z,97037.94
2022-11-16T09:50:27.107Z,97045.00
2022-11-16T09:52:59.565Z,97036.00
2022-11-16T09:55:35.227Z,97038.75
2022-11-16T09:58:11.615Z,97041.25
2022-11-16T10:00:45.888Z,97043.69
2022-11-16T10:03:14.726Z,97044.31
2022-11-16T10:05:53.467Z,97042.66
2022-11-16T10:08:45.522Z,97040.75
2022-11-16T10:11:44.539Z,97040.16
2022-11-16T10:15:01.473Z,97046.50
2022-11-16T10:18:34.248Z,97037.50
2022-11-16T10:21:51.939Z,97030.09
2022-11-16T10:24:42.527Z,97036.06
2022-11-16T10:27:47.915Z,97032.63
2022-11-16T10:30:20.458Z,97025.22
2022-11-16T10:33:01.031Z,97032.59
2022-11-16T10:35:34.340Z,97027.41
2022-11-16T10:38:03.980Z,97027.81
2022-11-16T10:40:37.401Z,97022.19
2022-11-16T10:43:23.387Z,97027.31
2022-11-16T10:46:16.594Z,97021.78
2022-11-16T10:49:16.141Z,97021.06
2022-11-16T10:51:43.540Z,97008.19
2022-11-16T10:54:15.732Z,96998.00
2022-11-16T10:56:49.784Z,97001.25
2022-11-16T10:59:19.641Z,96990.53
2022-11-16T11:01:49.983Z,96994.97
2022-11-16T11:04:31.338Z,96993.75
2022-11-16T11:07:00.097Z,96988.50
2022-11-16T11:09:38.663Z,96989.97
2022-11-16T11:12:38.341Z,96993.00
2022-11-16T11:15:11.448Z,96985.81
2022-11-16T11:17:47.038Z,96987.34
2022-11-16T11:20:16.817Z,96989.66
2022-11-16T11:23:00.722Z,96983.56
2022-11-16T11:25:33.751Z,96990.41
2022-11-16T11:28:28.578Z,96987.25
2022-11-16T11:31:25.754Z,96988.97
2022-11-16T11:33:55.999Z,96984.13
2022-11-16T11:36:40.489Z,96973.22
2022-11-16T11:39:13.530Z,96976.25
2022-11-16T11:41:47.041Z,96980.03
2022-11-16T11:44:13.850Z,96975.91
2022-11-16T11:47:42.331Z,96982.63
2022-11-16T11:49:50.097Z,96986.22
2022-11-16T11:52:25.026Z,96984.72
2022-11-16T11:54:54.869Z,96982.91
2022-11-16T11:57:23.845Z,96984.91
2022-11-16T11:59:53.392Z,96978.16
2022-11-16T12:03:11.472Z,96979.66
2022-11-16T12:05:59.897Z,96971.44
2022-11-16T12:08:58.624Z,96968.78
2022-11-16T12:12:14.669Z,96964.81
2022-11-16T12:15:29.509Z,96955.50
2022-11-16T12:18:25.561Z,96960.19
2022-11-16T12:21:09.922Z,96950.34
2022-11-16T12:24:34.427Z,96962.34
2022-11-16T12:27:33.528Z,96957.88
2022-11-16T12:30:16.736Z,96951.09
2022-11-16T12:33:23.930Z,96941.78
2022-11-16T12:36:07.946Z,96948.41
2022-11-16T12:38:56.884Z,96950.78
2022-11-16T12:41:36.389Z,96947.31
2022-11-16T12:44:12.895Z,96938.66
2022-11-16T12:47:02.235Z,96930.44
2022-11-16T12:50:09.295Z,96933.09
2022-11-16T12:52:57.144Z,96936.19
2022-11-16T12:55:43.022Z,96939.84
2022-11-16T12:58:59.109Z,96931.59
2022-11-16T13:01:41.928Z,96940.16
2022-11-16T13:04:26.646Z,96936.16
2022-11-16T13:07:36.415Z,96934.25
2022-11-16T13:10:14.186Z,96929.66
2022-11-16T13:12:43.540Z,96931.78
2022-11-16T13:15:19.341Z,96924.88
2022-11-16T13:18:00.216Z,96928.56
2022-11-16T13:20:54.859Z,96922.25
2022-11-16T13:23:31.424Z,96908.41
2022-11-16T13:26:27.427Z,96915.53
2022-11-16T13:29:33.737Z,96920.34
2022-11-16T13:32:31.872Z,96904.53
2022-11-16T13:35:00.062Z,96905.09
2022-11-16T13:37:39.374Z,96904.38
2022-11-16T13:40:06.301Z,96909.72
2022-11-16T13:42:39.069Z,96903.16
2022-11-16T13:45:25.394Z,96899.72
2022-11-16T13:47:55.361Z,96895.63
2022-11-16T13:50:47.985Z,96892.50
2022-11-16T13:54:25.192Z,96891.38
2022-11-16T13:56:25.578Z,96896.50
2022-11-16T13:58:55.745Z,96896.28
2022-11-16T14:01:23.822Z,96887.91
2022-11-16T14:03:52.594Z,96882.31
2022-11-16T14:06:19.440Z,96889.19
2022-11-16T14:08:57.449Z,96899.16
2022-11-16T14:11:38.814Z,96893.25
2022-11-16T14:15:15.203Z,96885.28
2022-11-16T14:18:00.190Z,96882.09
2022-11-16T14:20:39.989Z,96882.06
2022-11-16T14:23:49.354Z,96876.44
2022-11-16T14:26:47.500Z,96880.47
2022-11-16T14:29:52.429Z,96876.19
2022-11-16T14:32:30.733Z,96878.66
2022-11-16T14:35:00.865Z,96872.56
2022-11-16T14:37:28.988Z,96875.56
2022-11-16T14:40:18.020Z,96863.84
2022-11-16T14:43:28.337Z,96860.59
2022-11-16T14:46:41.439Z,96853.41
2022-11-16T14:49:14.129Z,96848.03
2022-11-16T14:51:51.822Z,96844.84
2022-11-16T14:55:00.164Z,96851.50
2022-11-16T14:57:27.096Z,96851.22
2022-11-16T15:00:17.882Z,96846.47
2022-11-16T15:02:53.616Z,96845.13
2022-11-16T15:05:29.602Z,96840.31
2022-11-16T15:07:59.927Z,96834.38
2022-11-16T15:10:29.003Z,96848.78
2022-11-16T15:12:57.828Z,96849.03
2022-11-16T15:15:29.356Z,96843.47
2022-11-16T15:17:59.252Z,96841.03
2022-11-16T15:20:29.794Z,96842.66
2022-11-16T15:23:02.383Z,96854.31
2022-11-16T15:25:55.070Z,96845.03
2022-11-16T15:28:28.314Z,96837.56
2022-11-16T15:31:04.503Z,96826.75
2022-11-16T15:33:37.272Z,96842.72
2022-11-16T15:36:40.501Z,96830.31
2022-11-16T15:39:28.740Z,96825.78
2022-11-16T15:42:00.559Z,96829.19
2022-11-16T15:44:31.908Z,96834.88
2022-11-16T15:46:59.500Z,96833.25
2022-11-16T15:49:35.591Z,96839.72
2022-11-16T15:52:02.934Z,96834.25
2022-11-16T15:54:55.543Z,96825.19
2022-11-16T15:57:24.673Z,96823.03
2022-11-16T15:59:55.415Z,96818.03
2022-11-16T16:02:27.478Z,96825.75
2022-11-16T16:04:54.350Z,96823.13
2022-11-16T16:07:42.484Z,96826.84
2022-11-16T16:10:18.496Z,96824.19
2022-11-16T16:12:51.537Z,96820.13
2022-11-16T16:15:37.943Z,96828.69
2022-11-16T16:18:39.723Z,96826.50
2022-11-16T16:21:06.739Z,96819.22
2022-11-16T16:23:33.906Z,96822.63
2022-11-16T16:26:04.263Z,96822.44
2022-11-16T16:28:31.239Z,96819.38
2022-11-16T16:30:58.170Z,96817.34
2022-11-16T16:33:28.591Z,96823.25
2022-11-16T16:35:55.756Z,96821.91
2022-11-16T16:38:22.834Z,96811.22
2022-11-16T16:40:53.029Z,96809.53
2022-11-16T16:43:20.012Z,96825.50
2022-11-16T16:45:56.004Z,96821.53
2022-11-16T16:48:25.490Z,96822.63
2022-11-16T16:50:53.715Z,96822.59
2022-11-16T16:53:21.041Z,96820.06
2022-11-16T16:55:48.985Z,96805.69
2022-11-16T16:58:16.445Z,96802.59
2022-11-16T17:00:46.241Z,96808.44
2022-11-16T17:03:13.293Z,96806.72
2022-11-16T17:05:40.255Z,96799.91
2022-11-16T17:08:08.434Z,96796.31
2022-11-16T17:10:41.531Z,96807.06
2022-11-16T17:13:10.390Z,96798.25
2022-11-16T17:15:40.288Z,96795.75
2022-11-16T17:18:07.657Z,96793.69
2022-11-16T17:20:34.687Z,96790.78
2022-11-16T17:23:01.776Z,96793.25
2022-11-16T17:25:30.191Z,96786.41
2022-11-16T17:27:57.192Z,96798.41
2022-11-16T17:30:24.103Z,96789.09
2022-11-16T17:32:53.568Z,96783.19
2022-11-16T17:35:20.704Z,96775.34
2022-11-16T17:37:47.724Z,96777.81
2022-11-16T17:40:15.210Z,96782.31
2022-11-16T17:42:44.387Z,96781.94
2022-11-16T17:45:11.994Z,96777.28
2022-11-16T17:47:41.210Z,96773.03
2022-11-16T17:50:09.162Z,96760.25
2022-11-16T17:52:36.205Z,96766.53
2022-11-16T17:55:03.238Z,96762.19
2022-11-16T17:57:30.172Z,96758.97
2022-11-16T18:00:00.239Z,96759.72
2022-11-16T18:02:27.323Z,96762.03
2022-11-16T18:04:54.463Z,96762.84
2022-11-16T18:07:21.516Z,96760.31
2022-11-16T18:09:48.649Z,96768.69
2022-11-16T18:12:15.628Z,96759.06
2022-11-16T18:14:54.766Z,96763.53
2022-11-16T18:17:31.257Z,96750.97
2022-11-16T18:19:58.238Z,96752.22
2022-11-16T18:22:25.141Z,96758.84
2022-11-16T18:24:52.117Z,96756.09
2022-11-16T18:27:19.032Z,96753.97
2022-11-16T18:29:45.921Z,96757.88
2022-11-16T18:32:12.976Z,96749.94
2022-11-16T18:34:40.000Z,96746.59
2022-11-16T18:37:07.050Z,96738.78
2022-11-16T18:39:34.064Z,96738.53
2022-11-16T18:42:01.060Z,96728.84
2022-11-16T18:44:28.032Z,96729.41
2022-11-16T18:46:54.966Z,96729.38
2022-11-16T18:49:21.981Z,96718.34
2022-11-16T18:51:48.909Z,96714.03
2022-11-16T18:54:15.876Z,96707.94
2022-11-16T18:56:42.900Z,96705.22
2022-11-16T18:59:09.854Z,96689.81
2022-11-16T19:01:36.860Z,96689.53
2022-11-16T19:04:04.142Z,96679.97
2022-11-16T19:06:34.250Z,96674.69
2022-11-16T19:09:02.253Z,96673.75
2022-11-16T19:11:29.305Z,96675.44
2022-11-16T19:14:07.479Z,96672.03
2022-11-16T19:16:35.565Z,96676.00
2022-11-16T19:19:05.067Z,96671.09
2022-11-16T19:21:32.015Z,96668.69
2022-11-16T19:24:01.953Z,96673.34
2022-11-16T19:26:28.910Z,96674.41
2022-11-16T19:28:56.025Z,96671.78
2022-11-16T19:31:32.427Z,96672.66
2022-11-16T19:34:05.747Z,96681.75
2022-11-16T19:36:35.480Z,96671.13
2022-11-16T19:39:04.007Z,96676.75
2022-11-16T19:41:31.011Z,96671.38
2022-11-16T19:44:00.306Z,96666.81
2022-11-16T19:46:32.763Z,96668.94
2022-11-16T19:49:00.314Z,96668.19
2022-11-16T19:51:32.572Z,96664.63
2022-11-16T19:54:03.088Z,96662.31
2022-11-16T19:56:30.485Z,96679.13
2022-11-16T19:58:57.882Z,96682.19
2022-11-16T20:01:28.733Z,96683.66
2022-11-16T20:03:59.883Z,96675.09
2022-11-16T20:06:35.550Z,96684.38
2022-11-16T20:09:13.328Z,96680.44
2022-11-16T20:11:41.577Z,96683.81
2022-11-16T20:14:11.631Z,96685.78
2022-11-16T20:16:41.172Z,96699.03
2022-11-16T20:19:10.076Z,96693.25
2022-11-16T20:21:41.204Z,96697.75
2022-11-16T20:24:14.488Z,96698.03
2022-11-16T20:26:44.818Z,96688.53
2022-11-16T20:29:13.436Z,96676.00
2022-11-16T20:31:42.830Z,96662.19
2022-11-16T20:34:16.236Z,96648.00
2022-11-16T20:36:46.054Z,96652.00
2022-11-16T20:39:15.897Z,96646.88
2022-11-16T20:41:43.870Z,96636.66
2022-11-16T20:44:19.477Z,96633.34
2022-11-16T20:46:46.813Z,96630.47
2022-11-16T20:49:14.126Z,96630.91
2022-11-16T20:51:41.328Z,96626.16
2022-11-16T20:54:08.421Z,96625.19
2022-11-16T20:56:38.308Z,96629.34
2022-11-16T20:59:05.444Z,96627.88
2022-11-16T21:01:32.578Z,96631.31
2022-11-16T21:04:05.012Z,96626.38
2022-11-16T21:06:33.073Z,96620.38
2022-11-16T21:09:00.748Z,96625.22
2022-11-16T21:11:30.852Z,96619.81
2022-11-16T21:14:16.250Z,96623.56
2022-11-16T21:16:46.815Z,96617.03
2022-11-16T21:19:16.898Z,96623.25
2022-11-16T21:21:43.946Z,96615.53
2022-11-16T21:24:11.379Z,96623.47
2022-11-16T21:26:38.508Z,96604.88
2022-11-16T21:29:05.611Z,96600.97
2022-11-16T21:31:34.965Z,96603.06
2022-11-16T21:34:02.635Z,96603.19
2022-11-16T21:36:31.967Z,96596.91
2022-11-16T21:39:29.317Z,96600.22
2022-11-16T21:41:57.943Z,96599.47
2022-11-16T21:44:25.155Z,96603.31
2022-11-16T21:47:03.918Z,96608.13
2022-11-16T21:50:02.340Z,96604.41
2022-11-16T21:52:48.657Z,96600.44
2022-11-16T21:55:20.320Z,96600.19
2022-11-16T21:57:55.945Z,96596.44
2022-11-16T22:00:23.062Z,96588.25
2022-11-16T22:02:50.137Z,96592.34
2022-11-16T22:05:36.103Z,96588.59
2022-11-16T22:08:08.541Z,96582.56
2022-11-16T22:10:35.746Z,96582.97
2022-11-16T22:13:02.760Z,96578.50
2022-11-16T22:15:30.049Z,96587.72
2022-11-16T22:17:57.049Z,96579.09
2022-11-16T22:20:24.093Z,96581.88
2022-11-16T22:22:51.024Z,96581.94
2022-11-16T22:25:18.539Z,96579.97
2022-11-16T22:28:18.643Z,96583.06
2022-11-16T22:30:35.262Z,96588.06
2022-11-16T22:33:02.271Z,96591.28
2022-11-16T22:35:29.294Z,96587.31
2022-11-16T22:37:56.239Z,96588.22
2022-11-16T22:40:23.153Z,96590.28
2022-11-16T22:42:50.053Z,96591.66
2022-11-16T22:45:17.078Z,96588.31
2022-11-16T22:47:44.061Z,96586.75
2022-11-16T22:50:11.013Z,96586.00
2022-11-16T22:52:37.950Z,96584.69
2022-11-16T22:55:05.385Z,96585.09
2022-11-16T22:57:32.312Z,96573.56
2022-11-16T22:59:59.236Z,96569.25
2022-11-16T23:02:26.211Z,96565.53
2022-11-16T23:04:53.095Z,96565.28
2022-11-16T23:07:20.013Z,96564.53
2022-11-16T23:09:46.960Z,96559.69
2022-11-16T23:12:32.326Z,96559.56
2022-11-16T23:15:17.998Z,96555.31
2022-11-16T23:17:45.838Z,96549.81
2022-11-16T23:20:31.210Z,96548.25
2022-11-16T23:23:16.943Z,96543.88
2022-11-16T23:26:10.035Z,96532.47
2022-11-16T23:28:36.942Z,96535.34
2022-11-16T23:31:03.877Z,96535.63
2022-11-16T23:33:46.114Z,96535.13
2022-11-16T23:36:13.715Z,96530.22
2022-11-16T23:38:41.028Z,96522.63
2022-11-16T23:41:26.878Z,96520.06
2022-11-16T23:43:59.982Z,96515.59
2022-11-16T23:46:30.793Z,96512.28
2022-11-16T23:48:58.530Z,96514.28
2022-11-16T23:51:25.553Z,96504.69
2022-11-16T23:53:53.885Z,96499.19
2022-11-16T23:56:23.480Z,96500.38
2022-11-16T23:58:50.600Z,96488.50
